createdAt,value
2022-09-06T00:08:54.848Z,36.30
2022-09-06T00:20:55.301Z,40.90
2022-09-06T00:32:55.741Z,37.30
2022-09-06T00:44:56.211Z,38.30
2022-09-06T00:56:56.648Z,41.60
2022-09-06T01:08:57.165Z,46.10
2022-09-06T01:20:57.574Z,41.20
2022-09-06T01:32:58.056Z,41.10
2022-09-06T01:44:58.507Z,38.10
2022-09-06T01:56:58.926Z,37.50
2022-09-06T02:08:59.356Z,42.10
2022-09-06T02:20:59.830Z,39.00
2022-09-06T02:33:00.294Z,37.50
2022-09-06T02:45:00.767Z,39.20
2022-09-06T02:57:01.178Z,44.50
2022-09-06T03:09:01.616Z,35.40
2022-09-06T03:21:02.063Z,46.10
2022-09-06T03:33:03.072Z,44.20
2022-09-06T03:45:03.011Z,43.10
2022-09-06T03:57:03.451Z,44.40
2022-09-06T04:09:03.928Z,43.40
2022-09-06T04:21:04.383Z,41.50
2022-09-06T04:33:04.842Z,41.20
2022-09-06T04:45:05.288Z,43.10
2022-09-06T04:57:05.767Z,43.50
2022-09-06T05:09:06.221Z,39.90
2022-09-06T05:21:06.650Z,40.40
2022-09-06T05:33:07.090Z,38.00
2022-09-06T05:45:07.556Z,36.00
2022-09-06T05:57:08.023Z,37.00
2022-09-06T06:09:08.481Z,30.50
2022-09-06T06:21:08.940Z,27.80
2022-09-06T06:33:09.363Z,26.20
2022-09-06T06:45:09.823Z,23.30
2022-09-06T06:57:10.275Z,20.10
2022-09-06T07:09:10.754Z,18.20
2022-09-06T07:21:38.561Z,15.50
2022-09-06T07:33:11.681Z,15.90
2022-09-06T07:45:12.103Z,15.00
2022-09-06T07:57:12.556Z,11.10
2022-09-06T08:09:13.028Z,10.00
2022-09-06T08:21:13.498Z,8.50
2022-09-06T08:33:13.953Z,10.60
2022-09-06T08:45:14.367Z,7.80
2022-09-06T08:57:14.848Z,8.00
2022-09-06T09:09:15.329Z,7.70
2022-09-06T09:21:15.767Z,7.70
2022-09-06T09:33:16.178Z,7.50
2022-09-06T09:45:16.633Z,6.30
2022-09-06T09:57:17.149Z,5.30
2022-09-06T10:09:19.188Z,5.70
2022-09-06T10:21:18.034Z,5.10
2022-09-06T10:33:18.467Z,5.60
2022-09-06T10:45:18.969Z,5.40
2022-09-06T11:09:19.837Z,5.50
2022-09-06T11:21:20.339Z,4.80
2022-09-06T11:33:20.811Z,5.30
2022-09-06T11:45:21.237Z,6.00
2022-09-06T11:57:21.727Z,5.80
2022-09-06T12:09:22.152Z,5.70
2022-09-06T12:21:22.619Z,7.50
2022-09-06T12:33:23.067Z,6.90
2022-09-06T12:45:27.175Z,7.70
2022-09-06T12:57:23.976Z,6.50
2022-09-06T13:09:24.465Z,6.20
2022-09-06T13:21:24.903Z,5.40
2022-09-06T13:33:25.360Z,8.10
2022-09-06T13:45:25.808Z,6.60
2022-09-06T13:57:26.306Z,6.70
2022-09-06T14:09:26.736Z,12.00
2022-09-06T14:21:27.182Z,6.10
2022-09-06T14:33:27.642Z,6.40
2022-09-06T14:45:28.124Z,6.90
2022-09-06T14:57:28.774Z,5.50
2022-09-06T15:09:29.000Z,6.60
2022-09-06T15:21:29.435Z,8.40
2022-09-06T15:33:30.150Z,5.50
2022-09-06T15:45:30.368Z,6.90
2022-09-06T15:57:30.829Z,8.30
2022-09-06T16:09:31.254Z,7.10
2022-09-06T16:21:31.780Z,7.60
2022-09-06T16:33:32.215Z,12.20
2022-09-06T16:45:32.661Z,22.40
2022-09-06T16:57:33.083Z,19.30
2022-09-06T17:09:33.596Z,19.90
2022-09-06T17:21:34.041Z,22.70
2022-09-06T17:33:34.499Z,23.80
2022-09-06T17:45:34.989Z,23.30
2022-09-06T17:57:35.434Z,22.80
2022-09-06T18:09:35.812Z,24.10
2022-09-06T18:21:36.334Z,24.50
2022-09-06T18:33:36.771Z,24.90
2022-09-06T18:45:37.271Z,24.00
2022-09-06T18:57:37.667Z,25.20
2022-09-06T19:09:38.175Z,28.10
2022-09-06T19:21:41.982Z,28.30
2022-09-06T19:33:39.068Z,28.20
2022-09-06T19:45:39.485Z,28.40
2022-09-06T19:57:39.949Z,27.00
2022-09-06T20:09:40.424Z,27.10
2022-09-06T20:21:40.879Z,28.10
2022-09-06T20:33:43.748Z,29.30
2022-09-06T20:45:41.746Z,27.40
2022-09-06T20:57:42.231Z,28.30
2022-09-06T21:09:42.698Z,30.50
2022-09-06T21:21:43.135Z,32.80
2022-09-06T21:33:43.603Z,29.90
2022-09-06T21:45:44.067Z,35.20
2022-09-06T21:57:44.536Z,33.20
2022-09-06T22:09:44.946Z,33.70
2022-09-06T22:21:45.425Z,32.60
2022-09-06T22:33:45.884Z,37.70
2022-09-06T22:45:51.212Z,37.10
2022-09-06T22:57:46.784Z,37.40
2022-09-06T23:09:47.224Z,39.70
2022-09-06T23:21:47.633Z,36.40
2022-09-06T23:33:48.109Z,34.00
2022-09-06T23:45:48.613Z,31.50
2022-09-06T23:57:49.065Z,48.70
